sensor_id;sensor_type;location;lat;lon;timestamp;P1;durP1;ratioP1;P2;durP2;ratioP2
70707;SDS011;58277;47.316;18.908;2024-02-04T00:01:26;2.70;;;1.40;;
70707;SDS011;58277;47.316;18.908;2024-02-04T00:03:49;3.10;;;1.40;;
70707;SDS011;58277;47.316;18.908;2024-02-04T00:06:12;2.30;;;1.20;;
70707;SDS011;58277;47.316;18.908;2024-02-04T00:08:35;2.40;;;1.33;;
70707;SDS011;58277;47.316;18.908;2024-02-04T00:10:58;2.17;;;1.10;;
70707;SDS011;58277;47.316;18.908;2024-02-04T00:13:21;3.13;;;1.25;;
70707;SDS011;58277;47.316;18.908;2024-02-04T00:15:44;2.20;;;1.20;;
70707;SDS011;58277;47.316;18.908;2024-02-04T00:18:07;2.28;;;1.10;;
70707;SDS011;58277;47.316;18.908;2024-02-04T00:20:34;1.80;;;0.93;;
70707;SDS011;58277;47.316;18.908;2024-02-04T00:22:57;2.93;;;1.20;;
70707;SDS011;58277;47.316;18.908;2024-02-04T00:25:20;1.90;;;0.88;;
70707;SDS011;58277;47.316;18.908;2024-02-04T00:27:42;2.40;;;0.93;;
70707;SDS011;58277;47.316;18.908;2024-02-04T00:30:05;2.30;;;1.23;;
70707;SDS011;58277;47.316;18.908;2024-02-04T00:32:35;2.90;;;1.33;;
70707;SDS011;58277;47.316;18.908;2024-02-04T00:34:57;2.40;;;1.10;;
70707;SDS011;58277;47.316;18.908;2024-02-04T00:37:21;2.22;;;0.90;;
70707;SDS011;58277;47.316;18.908;2024-02-04T00:39:43;2.20;;;1.10;;
70707;SDS011;58277;47.316;18.908;2024-02-04T00:42:06;2.42;;;1.10;;
70707;SDS011;58277;47.316;18.908;2024-02-04T00:44:34;2.58;;;1.10;;
70707;SDS011;58277;47.316;18.908;2024-02-04T00:46:57;2.60;;;1.00;;
70707;SDS011;58277;47.316;18.908;2024-02-04T00:49:19;2.30;;;1.00;;
70707;SDS011;58277;47.316;18.908;2024-02-04T00:51:42;1.95;;;1.10;;
70707;SDS011;58277;47.316;18.908;2024-02-04T00:54:05;1.85;;;1.00;;
70707;SDS011;58277;47.316;18.908;2024-02-04T00:56:33;2.33;;;1.17;;
70707;SDS011;58277;47.316;18.908;2024-02-04T00:58:55;1.83;;;0.90;;
70707;SDS011;58277;47.316;18.908;2024-02-04T01:01:18;1.95;;;1.27;;
70707;SDS011;58277;47.316;18.908;2024-02-04T01:03:44;1.77;;;0.90;;
70707;SDS011;58277;47.316;18.908;2024-02-04T01:06:07;2.35;;;0.98;;
70707;SDS011;58277;47.316;18.908;2024-02-04T01:08:30;3.30;;;1.30;;
70707;SDS011;58277;47.316;18.908;2024-02-04T01:10:53;1.87;;;1.00;;
70707;SDS011;58277;47.316;18.908;2024-02-04T01:13:16;1.80;;;1.10;;
70707;SDS011;58277;47.316;18.908;2024-02-04T01:15:39;3.08;;;1.30;;
70707;SDS011;58277;47.316;18.908;2024-02-04T01:18:02;2.97;;;1.33;;
70707;SDS011;58277;47.316;18.908;2024-02-04T01:20:25;2.72;;;1.60;;
70707;SDS011;58277;47.316;18.908;2024-02-04T01:22:48;2.20;;;1.40;;
70707;SDS011;58277;47.316;18.908;2024-02-04T01:25:11;2.65;;;1.40;;
70707;SDS011;58277;47.316;18.908;2024-02-04T01:27:33;3.58;;;1.48;;
70707;SDS011;58277;47.316;18.908;2024-02-04T01:29:57;2.95;;;1.30;;
70707;SDS011;58277;47.316;18.908;2024-02-04T01:32:19;2.80;;;1.60;;
70707;SDS011;58277;47.316;18.908;2024-02-04T01:34:42;3.63;;;1.40;;
70707;SDS011;58277;47.316;18.908;2024-02-04T01:37:05;2.72;;;1.38;;
70707;SDS011;58277;47.316;18.908;2024-02-04T01:39:28;2.70;;;1.48;;
70707;SDS011;58277;47.316;18.908;2024-02-04T01:41:51;3.13;;;1.58;;
70707;SDS011;58277;47.316;18.908;2024-02-04T01:44:13;3.80;;;1.70;;
70707;SDS011;58277;47.316;18.908;2024-02-04T01:46:38;3.20;;;1.60;;
70707;SDS011;58277;47.316;18.908;2024-02-04T01:49:00;3.28;;;1.67;;
70707;SDS011;58277;47.316;18.908;2024-02-04T01:51:23;4.57;;;2.30;;
70707;SDS011;58277;47.316;18.908;2024-02-04T01:53:46;3.97;;;2.10;;
70707;SDS011;58277;47.316;18.908;2024-02-04T01:56:11;3.42;;;1.85;;
70707;SDS011;58277;47.316;18.908;2024-02-04T01:58:35;3.60;;;2.00;;
70707;SDS011;58277;47.316;18.908;2024-02-04T02:00:58;4.32;;;2.00;;
70707;SDS011;58277;47.316;18.908;2024-02-04T02:03:21;3.47;;;1.90;;
70707;SDS011;58277;47.316;18.908;2024-02-04T02:05:44;4.57;;;2.10;;
70707;SDS011;58277;47.316;18.908;2024-02-04T02:08:08;3.85;;;2.17;;
70707;SDS011;58277;47.316;18.908;2024-02-04T02:10:32;3.80;;;1.97;;
70707;SDS011;58277;47.316;18.908;2024-02-04T02:12:58;3.55;;;1.80;;
70707;SDS011;58277;47.316;18.908;2024-02-04T02:15:30;4.90;;;1.90;;
70707;SDS011;58277;47.316;18.908;2024-02-04T02:23:22;3.40;;;2.00;;
70707;SDS011;58277;47.316;18.908;2024-02-04T02:25:53;3.65;;;2.00;;
70707;SDS011;58277;47.316;18.908;2024-02-04T02:28:16;4.53;;;2.13;;
70707;SDS011;58277;47.316;18.908;2024-02-04T02:30:38;3.40;;;1.90;;
70707;SDS011;58277;47.316;18.908;2024-02-04T02:33:01;5.38;;;2.20;;
70707;SDS011;58277;47.316;18.908;2024-02-04T02:35:27;3.93;;;1.70;;
70707;SDS011;58277;47.316;18.908;2024-02-04T02:40:32;4.88;;;2.38;;
70707;SDS011;58277;47.316;18.908;2024-02-04T02:43:02;3.58;;;1.80;;
70707;SDS011;58277;47.316;18.908;2024-02-04T02:45:25;4.32;;;1.90;;
70707;SDS011;58277;47.316;18.908;2024-02-04T02:47:49;4.17;;;2.10;;
70707;SDS011;58277;47.316;18.908;2024-02-04T02:50:12;5.97;;;2.10;;
70707;SDS011;58277;47.316;18.908;2024-02-04T02:52:36;3.97;;;2.20;;
70707;SDS011;58277;47.316;18.908;2024-02-04T02:54:58;4.60;;;2.00;;
70707;SDS011;58277;47.316;18.908;2024-02-04T02:57:22;4.05;;;2.10;;
70707;SDS011;58277;47.316;18.908;2024-02-04T02:59:44;4.33;;;2.20;;
70707;SDS011;58277;47.316;18.908;2024-02-04T03:02:07;4.05;;;2.10;;
70707;SDS011;58277;47.316;18.908;2024-02-04T03:04:30;4.15;;;2.20;;
70707;SDS011;58277;47.316;18.908;2024-02-04T03:06:53;4.35;;;2.10;;
70707;SDS011;58277;47.316;18.908;2024-02-04T03:09:16;3.75;;;2.33;;
70707;SDS011;58277;47.316;18.908;2024-02-04T03:11:39;4.50;;;2.20;;
70707;SDS011;58277;47.316;18.908;2024-02-04T03:14:01;5.28;;;2.25;;
70707;SDS011;58277;47.316;18.908;2024-02-04T03:16:24;4.30;;;2.33;;
70707;SDS011;58277;47.316;18.908;2024-02-04T03:18:47;4.78;;;2.60;;
70707;SDS011;58277;47.316;18.908;2024-02-04T03:21:16;4.38;;;2.50;;
70707;SDS011;58277;47.316;18.908;2024-02-04T03:23:40;4.53;;;2.43;;
70707;SDS011;58277;47.316;18.908;2024-02-04T03:26:06;4.72;;;2.38;;
70707;SDS011;58277;47.316;18.908;2024-02-04T03:28:29;5.20;;;2.80;;
70707;SDS011;58277;47.316;18.908;2024-02-04T03:30:52;6.28;;;3.10;;
70707;SDS011;58277;47.316;18.908;2024-02-04T03:33:15;5.70;;;2.90;;
70707;SDS011;58277;47.316;18.908;2024-02-04T03:35:38;5.43;;;2.57;;
70707;SDS011;58277;47.316;18.908;2024-02-04T03:38:01;5.18;;;2.70;;
70707;SDS011;58277;47.316;18.908;2024-02-04T03:40:24;5.18;;;2.65;;
70707;SDS011;58277;47.316;18.908;2024-02-04T03:42:47;4.97;;;2.72;;
70707;SDS011;58277;47.316;18.908;2024-02-04T03:45:11;4.18;;;2.35;;
70707;SDS011;58277;47.316;18.908;2024-02-04T03:47:33;5.07;;;2.60;;
70707;SDS011;58277;47.316;18.908;2024-02-04T03:49:56;4.60;;;2.70;;
70707;SDS011;58277;47.316;18.908;2024-02-04T03:52:19;4.90;;;2.83;;
70707;SDS011;58277;47.316;18.908;2024-02-04T03:54:42;5.93;;;2.70;;
70707;SDS011;58277;47.316;18.908;2024-02-04T03:57:05;4.93;;;2.70;;
70707;SDS011;58277;47.316;18.908;2024-02-04T03:59:28;4.27;;;2.40;;
70707;SDS011;58277;47.316;18.908;2024-02-04T04:01:51;4.70;;;2.50;;
70707;SDS011;58277;47.316;18.908;2024-02-04T04:04:17;3.90;;;2.30;;
70707;SDS011;58277;47.316;18.908;2024-02-04T04:06:40;3.53;;;2.20;;
70707;SDS011;58277;47.316;18.908;2024-02-04T04:09:04;5.03;;;2.70;;
70707;SDS011;58277;47.316;18.908;2024-02-04T04:11:27;4.43;;;2.50;;
70707;SDS011;58277;47.316;18.908;2024-02-04T04:13:50;4.25;;;2.50;;
70707;SDS011;58277;47.316;18.908;2024-02-04T04:16:13;4.10;;;2.40;;
70707;SDS011;58277;47.316;18.908;2024-02-04T04:18:35;4.85;;;2.80;;
70707;SDS011;58277;47.316;18.908;2024-02-04T04:20:59;4.85;;;3.20;;
70707;SDS011;58277;47.316;18.908;2024-02-04T04:23:22;5.10;;;3.00;;
70707;SDS011;58277;47.316;18.908;2024-02-04T04:25:44;4.25;;;2.40;;
70707;SDS011;58277;47.316;18.908;2024-02-04T04:28:07;3.42;;;2.20;;
70707;SDS011;58277;47.316;18.908;2024-02-04T04:30:30;4.50;;;2.90;;
70707;SDS011;58277;47.316;18.908;2024-02-04T04:32:52;4.28;;;2.45;;
70707;SDS011;58277;47.316;18.908;2024-02-04T04:35:15;3.77;;;2.40;;
70707;SDS011;58277;47.316;18.908;2024-02-04T04:37:38;4.07;;;2.30;;
70707;SDS011;58277;47.316;18.908;2024-02-04T04:40:01;4.63;;;2.45;;
70707;SDS011;58277;47.316;18.908;2024-02-04T04:42:24;4.20;;;2.65;;
70707;SDS011;58277;47.316;18.908;2024-02-04T04:44:47;4.60;;;2.92;;
70707;SDS011;58277;47.316;18.908;2024-02-04T04:47:10;4.63;;;2.70;;
70707;SDS011;58277;47.316;18.908;2024-02-04T04:49:33;4.43;;;2.70;;
70707;SDS011;58277;47.316;18.908;2024-02-04T04:51:55;5.47;;;2.78;;
70707;SDS011;58277;47.316;18.908;2024-02-04T04:54:18;4.93;;;2.58;;
70707;SDS011;58277;47.316;18.908;2024-02-04T04:56:41;4.82;;;2.75;;
70707;SDS011;58277;47.316;18.908;2024-02-04T04:59:09;4.17;;;2.40;;
70707;SDS011;58277;47.316;18.908;2024-02-04T05:01:31;3.97;;;2.30;;
70707;SDS011;58277;47.316;18.908;2024-02-04T05:03:54;4.25;;;2.47;;
70707;SDS011;58277;47.316;18.908;2024-02-04T05:06:18;6.35;;;2.70;;
70707;SDS011;58277;47.316;18.908;2024-02-04T05:08:42;6.07;;;2.90;;
70707;SDS011;58277;47.316;18.908;2024-02-04T05:11:04;4.77;;;2.67;;
70707;SDS011;58277;47.316;18.908;2024-02-04T05:13:27;5.60;;;2.88;;
70707;SDS011;58277;47.316;18.908;2024-02-04T05:15:50;5.43;;;2.88;;
70707;SDS011;58277;47.316;18.908;2024-02-04T05:18:13;5.18;;;2.88;;
70707;SDS011;58277;47.316;18.908;2024-02-04T05:20:36;4.85;;;2.58;;
70707;SDS011;58277;47.316;18.908;2024-02-04T05:22:58;5.80;;;2.60;;
70707;SDS011;58277;47.316;18.908;2024-02-04T05:25:21;4.88;;;2.80;;
70707;SDS011;58277;47.316;18.908;2024-02-04T05:27:44;4.88;;;2.72;;
70707;SDS011;58277;47.316;18.908;2024-02-04T05:30:07;5.57;;;3.10;;
70707;SDS011;58277;47.316;18.908;2024-02-04T05:32:30;5.43;;;3.00;;
70707;SDS011;58277;47.316;18.908;2024-02-04T05:34:53;4.93;;;2.63;;
70707;SDS011;58277;47.316;18.908;2024-02-04T05:37:16;5.10;;;2.97;;
70707;SDS011;58277;47.316;18.908;2024-02-04T05:39:38;4.50;;;2.80;;
70707;SDS011;58277;47.316;18.908;2024-02-04T05:42:02;4.90;;;2.65;;
70707;SDS011;58277;47.316;18.908;2024-02-04T05:44:24;4.47;;;2.60;;
70707;SDS011;58277;47.316;18.908;2024-02-04T05:46:47;4.53;;;2.50;;
70707;SDS011;58277;47.316;18.908;2024-02-04T05:49:10;5.55;;;2.50;;
70707;SDS011;58277;47.316;18.908;2024-02-04T05:51:42;4.97;;;2.67;;
70707;SDS011;58277;47.316;18.908;2024-02-04T05:54:05;6.35;;;2.60;;
70707;SDS011;58277;47.316;18.908;2024-02-04T05:56:29;4.18;;;2.50;;
70707;SDS011;58277;47.316;18.908;2024-02-04T05:58:52;5.00;;;2.53;;
70707;SDS011;58277;47.316;18.908;2024-02-04T06:01:15;4.22;;;2.42;;
70707;SDS011;58277;47.316;18.908;2024-02-04T06:03:38;4.50;;;2.78;;
70707;SDS011;58277;47.316;18.908;2024-02-04T06:06:01;4.22;;;2.42;;
70707;SDS011;58277;47.316;18.908;2024-02-04T06:08:24;4.40;;;2.50;;
70707;SDS011;58277;47.316;18.908;2024-02-04T06:10:46;4.07;;;2.30;;
70707;SDS011;58277;47.316;18.908;2024-02-04T06:13:09;4.32;;;2.35;;
70707;SDS011;58277;47.316;18.908;2024-02-04T06:15:32;3.60;;;2.20;;
70707;SDS011;58277;47.316;18.908;2024-02-04T06:17:55;4.93;;;2.35;;
70707;SDS011;58277;47.316;18.908;2024-02-04T06:20:18;4.15;;;2.13;;
70707;SDS011;58277;47.316;18.908;2024-02-04T06:22:43;3.83;;;2.20;;
70707;SDS011;58277;47.316;18.908;2024-02-04T06:25:06;3.60;;;1.90;;
70707;SDS011;58277;47.316;18.908;2024-02-04T06:27:30;3.78;;;2.13;;
70707;SDS011;58277;47.316;18.908;2024-02-04T06:29:53;3.22;;;2.05;;
70707;SDS011;58277;47.316;18.908;2024-02-04T06:32:16;3.67;;;2.30;;
70707;SDS011;58277;47.316;18.908;2024-02-04T06:34:42;3.67;;;1.63;;
70707;SDS011;58277;47.316;18.908;2024-02-04T06:37:05;3.88;;;1.80;;
70707;SDS011;58277;47.316;18.908;2024-02-04T06:39:28;3.22;;;1.88;;
70707;SDS011;58277;47.316;18.908;2024-02-04T06:41:51;2.75;;;1.75;;
70707;SDS011;58277;47.316;18.908;2024-02-04T06:44:13;2.75;;;1.70;;
70707;SDS011;58277;47.316;18.908;2024-02-04T06:46:36;2.33;;;1.40;;
70707;SDS011;58277;47.316;18.908;2024-02-04T06:48:59;2.22;;;1.30;;
70707;SDS011;58277;47.316;18.908;2024-02-04T06:51:22;2.70;;;1.60;;
70707;SDS011;58277;47.316;18.908;2024-02-04T06:53:45;3.03;;;1.58;;
70707;SDS011;58277;47.316;18.908;2024-02-04T06:56:08;2.40;;;1.50;;
70707;SDS011;58277;47.316;18.908;2024-02-04T06:58:31;2.17;;;1.20;;
70707;SDS011;58277;47.316;18.908;2024-02-04T07:00:53;3.10;;;1.50;;
70707;SDS011;58277;47.316;18.908;2024-02-04T07:03:16;2.45;;;1.30;;
70707;SDS011;58277;47.316;18.908;2024-02-04T07:05:39;2.13;;;1.40;;
70707;SDS011;58277;47.316;18.908;2024-02-04T07:08:02;2.75;;;1.30;;
70707;SDS011;58277;47.316;18.908;2024-02-04T07:10:25;2.40;;;1.40;;
70707;SDS011;58277;47.316;18.908;2024-02-04T07:12:47;2.35;;;1.40;;
70707;SDS011;58277;47.316;18.908;2024-02-04T07:15:10;2.10;;;1.20;;
70707;SDS011;58277;47.316;18.908;2024-02-04T07:17:33;2.20;;;1.30;;
70707;SDS011;58277;47.316;18.908;2024-02-04T07:19:55;2.03;;;1.40;;
70707;SDS011;58277;47.316;18.908;2024-02-04T07:22:18;3.10;;;1.40;;
70707;SDS011;58277;47.316;18.908;2024-02-04T07:24:41;3.30;;;1.40;;
70707;SDS011;58277;47.316;18.908;2024-02-04T07:27:04;2.97;;;1.50;;
70707;SDS011;58277;47.316;18.908;2024-02-04T07:29:27;2.33;;;1.40;;
70707;SDS011;58277;47.316;18.908;2024-02-04T07:31:50;2.42;;;1.30;;
70707;SDS011;58277;47.316;18.908;2024-02-04T07:34:13;2.23;;;1.13;;
70707;SDS011;58277;47.316;18.908;2024-02-04T07:36:36;2.03;;;1.05;;
70707;SDS011;58277;47.316;18.908;2024-02-04T07:38:59;2.63;;;1.35;;
70707;SDS011;58277;47.316;18.908;2024-02-04T07:41:21;3.72;;;1.52;;
70707;SDS011;58277;47.316;18.908;2024-02-04T07:43:44;3.40;;;1.60;;
70707;SDS011;58277;47.316;18.908;2024-02-04T07:46:07;3.00;;;1.40;;
70707;SDS011;58277;47.316;18.908;2024-02-04T07:48:31;3.13;;;1.30;;
70707;SDS011;58277;47.316;18.908;2024-02-04T07:50:54;2.33;;;1.35;;
70707;SDS011;58277;47.316;18.908;2024-02-04T07:53:16;2.00;;;1.20;;
70707;SDS011;58277;47.316;18.908;2024-02-04T07:55:39;2.47;;;1.27;;
70707;SDS011;58277;47.316;18.908;2024-02-04T07:58:02;2.53;;;1.43;;
70707;SDS011;58277;47.316;18.908;2024-02-04T08:00:25;1.88;;;1.10;;
70707;SDS011;58277;47.316;18.908;2024-02-04T08:02:48;2.83;;;1.30;;
70707;SDS011;58277;47.316;18.908;2024-02-04T08:05:11;2.13;;;1.10;;
70707;SDS011;58277;47.316;18.908;2024-02-04T08:07:33;1.85;;;1.08;;
70707;SDS011;58277;47.316;18.908;2024-02-04T08:09:56;1.70;;;1.00;;
70707;SDS011;58277;47.316;18.908;2024-02-04T08:12:19;2.20;;;1.25;;
70707;SDS011;58277;47.316;18.908;2024-02-04T08:14:42;2.33;;;1.30;;
70707;SDS011;58277;47.316;18.908;2024-02-04T08:17:05;1.90;;;1.20;;
70707;SDS011;58277;47.316;18.908;2024-02-04T08:19:28;2.95;;;1.10;;
70707;SDS011;58277;47.316;18.908;2024-02-04T08:21:50;1.60;;;0.97;;
70707;SDS011;58277;47.316;18.908;2024-02-04T08:24:13;1.88;;;1.10;;
70707;SDS011;58277;47.316;18.908;2024-02-04T08:26:40;2.22;;;1.35;;
70707;SDS011;58277;47.316;18.908;2024-02-04T08:29:02;1.77;;;1.20;;
70707;SDS011;58277;47.316;18.908;2024-02-04T08:31:25;2.00;;;1.20;;
70707;SDS011;58277;47.316;18.908;2024-02-04T08:33:48;1.80;;;0.90;;
70707;SDS011;58277;47.316;18.908;2024-02-04T08:36:11;1.45;;;0.98;;
70707;SDS011;58277;47.316;18.908;2024-02-04T08:38:33;1.70;;;1.10;;
70707;SDS011;58277;47.316;18.908;2024-02-04T08:40:56;1.92;;;0.98;;
70707;SDS011;58277;47.316;18.908;2024-02-04T08:43:19;1.63;;;1.00;;
70707;SDS011;58277;47.316;18.908;2024-02-04T08:45:42;1.60;;;1.10;;
70707;SDS011;58277;47.316;18.908;2024-02-04T08:48:04;1.65;;;0.90;;
70707;SDS011;58277;47.316;18.908;2024-02-04T08:50:28;1.33;;;0.70;;
70707;SDS011;58277;47.316;18.908;2024-02-04T08:52:51;1.90;;;1.20;;
70707;SDS011;58277;47.316;18.908;2024-02-04T08:55:14;1.50;;;0.95;;
70707;SDS011;58277;47.316;18.908;2024-02-04T08:57:37;1.90;;;0.90;;
70707;SDS011;58277;47.316;18.908;2024-02-04T08:59:59;1.35;;;0.80;;
70707;SDS011;58277;47.316;18.908;2024-02-04T09:02:24;1.65;;;0.80;;
70707;SDS011;58277;47.316;18.908;2024-02-04T09:04:47;1.40;;;0.80;;
70707;SDS011;58277;47.316;18.908;2024-02-04T09:07:10;1.40;;;0.80;;
70707;SDS011;58277;47.316;18.908;2024-02-04T09:09:33;2.20;;;0.90;;
70707;SDS011;58277;47.316;18.908;2024-02-04T09:11:56;2.05;;;0.98;;
70707;SDS011;58277;47.316;18.908;2024-02-04T09:14:18;1.55;;;0.77;;
70707;SDS011;58277;47.316;18.908;2024-02-04T09:16:41;1.52;;;0.85;;
70707;SDS011;58277;47.316;18.908;2024-02-04T09:19:04;1.40;;;0.80;;
70707;SDS011;58277;47.316;18.908;2024-02-04T09:21:27;1.17;;;0.70;;
70707;SDS011;58277;47.316;18.908;2024-02-04T09:23:51;2.00;;;0.75;;
70707;SDS011;58277;47.316;18.908;2024-02-04T09:26:13;1.40;;;0.90;;
70707;SDS011;58277;47.316;18.908;2024-02-04T09:28:40;1.17;;;0.70;;
70707;SDS011;58277;47.316;18.908;2024-02-04T09:31:03;1.45;;;0.90;;
70707;SDS011;58277;47.316;18.908;2024-02-04T09:33:26;1.30;;;0.87;;
70707;SDS011;58277;47.316;18.908;2024-02-04T09:35:49;1.75;;;0.93;;
70707;SDS011;58277;47.316;18.908;2024-02-04T09:38:12;1.40;;;1.02;;
70707;SDS011;58277;47.316;18.908;2024-02-04T09:40:36;3.10;;;0.90;;
70707;SDS011;58277;47.316;18.908;2024-02-04T09:42:59;2.05;;;0.98;;
70707;SDS011;58277;47.316;18.908;2024-02-04T09:45:23;2.20;;;0.73;;
70707;SDS011;58277;47.316;18.908;2024-02-04T09:47:46;1.67;;;0.90;;
70707;SDS011;58277;47.316;18.908;2024-02-04T09:50:12;1.73;;;0.90;;
70707;SDS011;58277;47.316;18.908;2024-02-04T09:52:39;1.55;;;0.77;;
70707;SDS011;58277;47.316;18.908;2024-02-04T09:55:05;1.52;;;0.90;;
70707;SDS011;58277;47.316;18.908;2024-02-04T09:57:30;1.90;;;0.90;;
70707;SDS011;58277;47.316;18.908;2024-02-04T09:59:55;2.08;;;1.02;;
70707;SDS011;58277;47.316;18.908;2024-02-04T10:02:18;1.60;;;1.05;;
70707;SDS011;58277;47.316;18.908;2024-02-04T10:04:43;1.77;;;0.93;;
70707;SDS011;58277;47.316;18.908;2024-02-04T10:07:07;2.22;;;1.02;;
70707;SDS011;58277;47.316;18.908;2024-02-04T10:09:30;2.40;;;1.00;;
70707;SDS011;58277;47.316;18.908;2024-02-04T10:11:53;2.83;;;1.10;;
70707;SDS011;58277;47.316;18.908;2024-02-04T10:14:17;2.28;;;0.80;;
70707;SDS011;58277;47.316;18.908;2024-02-04T10:16:41;1.50;;;0.93;;
70707;SDS011;58277;47.316;18.908;2024-02-04T10:19:04;1.77;;;0.88;;
70707;SDS011;58277;47.316;18.908;2024-02-04T10:21:27;1.57;;;0.80;;
70707;SDS011;58277;47.316;18.908;2024-02-04T10:23:51;1.67;;;0.85;;
70707;SDS011;58277;47.316;18.908;2024-02-04T10:26:14;1.88;;;0.93;;
70707;SDS011;58277;47.316;18.908;2024-02-04T10:28:37;1.48;;;0.90;;
70707;SDS011;58277;47.316;18.908;2024-02-04T10:31:00;1.50;;;1.05;;
70707;SDS011;58277;47.316;18.908;2024-02-04T10:33:24;3.07;;;0.80;;
70707;SDS011;58277;47.316;18.908;2024-02-04T10:35:48;1.67;;;1.00;;
70707;SDS011;58277;47.316;18.908;2024-02-04T10:38:12;1.70;;;1.10;;
70707;SDS011;58277;47.316;18.908;2024-02-04T10:40:35;1.52;;;0.90;;
70707;SDS011;58277;47.316;18.908;2024-02-04T10:43:00;1.63;;;0.90;;
70707;SDS011;58277;47.316;18.908;2024-02-04T10:45:26;1.57;;;0.80;;
70707;SDS011;58277;47.316;18.908;2024-02-04T10:47:55;1.27;;;0.80;;
70707;SDS011;58277;47.316;18.908;2024-02-04T10:50:21;1.65;;;0.80;;
70707;SDS011;58277;47.316;18.908;2024-02-04T10:52:46;1.90;;;0.90;;
70707;SDS011;58277;47.316;18.908;2024-02-04T10:55:13;1.98;;;0.90;;
70707;SDS011;58277;47.316;18.908;2024-02-04T10:57:38;1.73;;;0.87;;
70707;SDS011;58277;47.316;18.908;2024-02-04T11:00:03;1.48;;;0.85;;
70707;SDS011;58277;47.316;18.908;2024-02-04T11:02:40;2.10;;;0.80;;
70707;SDS011;58277;47.316;18.908;2024-02-04T11:05:08;1.60;;;0.80;;
70707;SDS011;58277;47.316;18.908;2024-02-04T11:07:32;1.35;;;0.80;;
70707;SDS011;58277;47.316;18.908;2024-02-04T11:09:57;2.67;;;1.30;;
70707;SDS011;58277;47.316;18.908;2024-02-04T11:12:20;1.63;;;0.90;;
70707;SDS011;58277;47.316;18.908;2024-02-04T11:14:46;1.35;;;0.90;;
70707;SDS011;58277;47.316;18.908;2024-02-04T11:22:30;3.33;;;1.53;;
70707;SDS011;58277;47.316;18.908;2024-02-04T11:27:56;1.70;;;0.77;;
70707;SDS011;58277;47.316;18.908;2024-02-04T11:30:19;2.70;;;0.90;;
70707;SDS011;58277;47.316;18.908;2024-02-04T11:32:43;1.42;;;0.80;;
70707;SDS011;58277;47.316;18.908;2024-02-04T11:35:06;1.30;;;0.70;;
70707;SDS011;58277;47.316;18.908;2024-02-04T11:37:30;1.88;;;0.93;;
70707;SDS011;58277;47.316;18.908;2024-02-04T11:39:57;1.20;;;0.68;;
70707;SDS011;58277;47.316;18.908;2024-02-04T11:42:22;1.20;;;0.60;;
70707;SDS011;58277;47.316;18.908;2024-02-04T11:44:46;1.45;;;0.70;;
70707;SDS011;58277;47.316;18.908;2024-02-04T11:47:09;1.10;;;0.60;;
70707;SDS011;58277;47.316;18.908;2024-02-04T11:49:32;1.20;;;0.65;;
70707;SDS011;58277;47.316;18.908;2024-02-04T11:51:55;1.20;;;0.60;;
70707;SDS011;58277;47.316;18.908;2024-02-04T11:54:19;1.20;;;0.70;;
70707;SDS011;58277;47.316;18.908;2024-02-04T11:56:45;1.40;;;0.70;;
70707;SDS011;58277;47.316;18.908;2024-02-04T11:59:08;1.10;;;0.60;;
70707;SDS011;58277;47.316;18.908;2024-02-04T12:01:32;1.75;;;0.70;;
70707;SDS011;58277;47.316;18.908;2024-02-04T12:03:57;1.30;;;0.70;;
70707;SDS011;58277;47.316;18.908;2024-02-04T12:06:30;2.05;;;0.60;;
70707;SDS011;58277;47.316;18.908;2024-02-04T12:08:54;1.67;;;0.90;;
70707;SDS011;58277;47.316;18.908;2024-02-04T12:11:17;2.20;;;0.67;;
70707;SDS011;58277;47.316;18.908;2024-02-04T12:13:40;1.88;;;0.70;;
70707;SDS011;58277;47.316;18.908;2024-02-04T12:16:05;1.23;;;0.85;;
70707;SDS011;58277;47.316;18.908;2024-02-04T12:18:31;1.30;;;0.80;;
70707;SDS011;58277;47.316;18.908;2024-02-04T12:20:54;1.15;;;0.60;;
70707;SDS011;58277;47.316;18.908;2024-02-04T12:23:17;1.40;;;0.70;;
70707;SDS011;58277;47.316;18.908;2024-02-04T12:25:43;1.30;;;0.40;;
70707;SDS011;58277;47.316;18.908;2024-02-04T12:28:06;1.27;;;0.50;;
70707;SDS011;58277;47.316;18.908;2024-02-04T12:30:31;1.42;;;0.70;;
70707;SDS011;58277;47.316;18.908;2024-02-04T12:32:58;2.00;;;1.15;;
70707;SDS011;58277;47.316;18.908;2024-02-04T12:35:22;2.63;;;1.20;;
70707;SDS011;58277;47.316;18.908;2024-02-04T12:37:51;2.00;;;1.02;;
70707;SDS011;58277;47.316;18.908;2024-02-04T12:40:20;2.00;;;1.10;;
70707;SDS011;58277;47.316;18.908;2024-02-04T12:42:51;1.60;;;0.82;;
70707;SDS011;58277;47.316;18.908;2024-02-04T12:45:17;1.33;;;0.80;;
70707;SDS011;58277;47.316;18.908;2024-02-04T12:47:40;1.30;;;0.70;;
70707;SDS011;58277;47.316;18.908;2024-02-04T12:50:03;1.15;;;0.60;;
70707;SDS011;58277;47.316;18.908;2024-02-04T12:52:28;1.15;;;0.60;;
70707;SDS011;58277;47.316;18.908;2024-02-04T12:54:53;1.00;;;0.52;;
70707;SDS011;58277;47.316;18.908;2024-02-04T12:57:23;1.00;;;0.60;;
70707;SDS011;58277;47.316;18.908;2024-02-04T12:59:49;1.00;;;0.50;;
70707;SDS011;58277;47.316;18.908;2024-02-04T13:02:13;1.40;;;0.95;;
70707;SDS011;58277;47.316;18.908;2024-02-04T13:04:36;1.30;;;0.70;;
70707;SDS011;58277;47.316;18.908;2024-02-04T13:07:01;1.25;;;0.70;;
70707;SDS011;58277;47.316;18.908;2024-02-04T13:09:24;1.15;;;0.75;;
70707;SDS011;58277;47.316;18.908;2024-02-04T13:11:47;2.53;;;0.70;;
70707;SDS011;58277;47.316;18.908;2024-02-04T13:14:09;1.02;;;0.50;;
70707;SDS011;58277;47.316;18.908;2024-02-04T13:16:32;1.10;;;0.70;;
70707;SDS011;58277;47.316;18.908;2024-02-04T13:18:58;1.25;;;0.50;;
70707;SDS011;58277;47.316;18.908;2024-02-04T13:21:21;0.90;;;0.50;;
70707;SDS011;58277;47.316;18.908;2024-02-04T13:23:44;1.17;;;0.50;;
70707;SDS011;58277;47.316;18.908;2024-02-04T13:26:06;0.93;;;0.50;;
70707;SDS011;58277;47.316;18.908;2024-02-04T13:28:32;1.15;;;0.55;;
70707;SDS011;58277;47.316;18.908;2024-02-04T13:30:55;1.42;;;0.60;;
70707;SDS011;58277;47.316;18.908;2024-02-04T13:33:18;1.30;;;0.45;;
70707;SDS011;58277;47.316;18.908;2024-02-04T13:35:42;1.10;;;0.50;;
70707;SDS011;58277;47.316;18.908;2024-02-04T13:38:04;1.50;;;0.70;;
70707;SDS011;58277;47.316;18.908;2024-02-04T13:40:27;1.27;;;0.63;;
70707;SDS011;58277;47.316;18.908;2024-02-04T13:42:50;1.52;;;0.57;;
70707;SDS011;58277;47.316;18.908;2024-02-04T13:45:13;1.50;;;0.65;;
70707;SDS011;58277;47.316;18.908;2024-02-04T13:47:37;1.30;;;0.60;;
70707;SDS011;58277;47.316;18.908;2024-02-04T13:50:00;1.02;;;0.50;;
70707;SDS011;58277;47.316;18.908;2024-02-04T13:52:24;1.05;;;0.57;;
70707;SDS011;58277;47.316;18.908;2024-02-04T13:54:46;1.52;;;0.70;;
70707;SDS011;58277;47.316;18.908;2024-02-04T13:57:09;1.23;;;0.50;;
70707;SDS011;58277;47.316;18.908;2024-02-04T13:59:33;1.73;;;0.70;;
70707;SDS011;58277;47.316;18.908;2024-02-04T14:01:56;1.40;;;0.68;;
70707;SDS011;58277;47.316;18.908;2024-02-04T14:04:23;1.60;;;0.60;;
70707;SDS011;58277;47.316;18.908;2024-02-04T14:06:46;1.13;;;0.50;;
70707;SDS011;58277;47.316;18.908;2024-02-04T14:09:09;0.93;;;0.50;;
70707;SDS011;58277;47.316;18.908;2024-02-04T14:11:35;0.90;;;0.30;;
70707;SDS011;58277;47.316;18.908;2024-02-04T14:13:58;1.52;;;0.47;;
70707;SDS011;58277;47.316;18.908;2024-02-04T14:16:20;1.27;;;0.52;;
70707;SDS011;58277;47.316;18.908;2024-02-04T14:18:43;0.80;;;0.40;;
70707;SDS011;58277;47.316;18.908;2024-02-04T14:21:09;1.10;;;0.43;;
70707;SDS011;58277;47.316;18.908;2024-02-04T14:23:32;0.70;;;0.30;;
70707;SDS011;58277;47.316;18.908;2024-02-04T14:25:54;0.50;;;0.25;;
70707;SDS011;58277;47.316;18.908;2024-02-04T14:28:17;2.58;;;0.50;;